sensor_id;sensor_type;location;lat;lon;timestamp;pressure;altitude;pressure_sealevel;temperature;humidity
44765;BME280;30484;52.382;5.260;2023-05-29T00:01:54;102601.13;;;14.13;100.00
44765;BME280;30484;52.382;5.260;2023-05-29T00:04:22;102611.88;;;14.13;100.00
44765;BME280;30484;52.382;5.260;2023-05-29T00:06:51;102612.53;;;14.20;100.00
44765;BME280;30484;52.382;5.260;2023-05-29T00:09:19;102602.69;;;14.19;100.00
44765;BME280;30484;52.382;5.260;2023-05-29T00:11:48;102611.63;;;14.19;100.00
44765;BME280;30484;52.382;5.260;2023-05-29T00:14:19;102614.34;;;13.94;100.00
44765;BME280;30484;52.382;5.260;2023-05-29T00:16:52;102625.25;;;13.89;100.00
44765;BME280;30484;52.382;5.260;2023-05-29T00:19:21;102622.63;;;13.62;100.00
44765;BME280;30484;52.382;5.260;2023-05-29T00:21:51;102621.03;;;13.82;100.00
44765;BME280;30484;52.382;5.260;2023-05-29T00:24:21;102622.13;;;14.02;100.00
44765;BME280;30484;52.382;5.260;2023-05-29T00:26:50;102631.06;;;14.02;100.00
44765;BME280;30484;52.382;5.260;2023-05-29T00:29:18;102619.06;;;13.87;100.00
44765;BME280;30484;52.382;5.260;2023-05-29T00:31:48;102632.50;;;13.87;100.00
44765;BME280;30484;52.382;5.260;2023-05-29T00:34:18;102621.38;;;13.73;100.00
44765;BME280;30484;52.382;5.260;2023-05-29T00:36:46;102628.50;;;13.74;100.00
44765;BME280;30484;52.382;5.260;2023-05-29T00:39:15;102620.34;;;13.77;100.00
44765;BME280;30484;52.382;5.260;2023-05-29T00:41:43;102633.66;;;13.80;100.00
44765;BME280;30484;52.382;5.260;2023-05-29T00:44:12;102632.41;;;13.63;100.00
44765;BME280;30484;52.382;5.260;2023-05-29T00:46:42;102630.41;;;13.70;100.00
44765;BME280;30484;52.382;5.260;2023-05-29T00:49:11;102634.00;;;13.44;100.00
44765;BME280;30484;52.382;5.260;2023-05-29T00:51:45;102620.66;;;13.41;100.00
44765;BME280;30484;52.382;5.260;2023-05-29T00:54:24;102613.16;;;13.51;100.00
44765;BME280;30484;52.382;5.260;2023-05-29T00:56:59;102633.66;;;13.53;100.00
44765;BME280;30484;52.382;5.260;2023-05-29T00:59:31;102635.16;;;13.62;100.00
44765;BME280;30484;52.382;5.260;2023-05-29T01:02:05;102639.88;;;13.55;100.00
44765;BME280;30484;52.382;5.260;2023-05-29T01:04:35;102637.44;;;13.48;100.00
44765;BME280;30484;52.382;5.260;2023-05-29T01:07:06;102639.03;;;13.53;100.00
44765;BME280;30484;52.382;5.260;2023-05-29T01:09:38;102647.94;;;13.55;100.00
44765;BME280;30484;52.382;5.260;2023-05-29T01:12:19;102637.56;;;13.44;100.00
44765;BME280;30484;52.382;5.260;2023-05-29T01:15:04;102652.16;;;13.36;100.00
44765;BME280;30484;52.382;5.260;2023-05-29T01:17:51;102642.25;;;13.38;100.00
44765;BME280;30484;52.382;5.260;2023-05-29T01:20:29;102643.50;;;13.54;100.00
44765;BME280;30484;52.382;5.260;2023-05-29T01:23:37;102635.50;;;13.24;100.00
44765;BME280;30484;52.382;5.260;2023-05-29T01:29:26;102645.50;;;13.48;100.00
44765;BME280;30484;52.382;5.260;2023-05-29T01:31:58;102656.63;;;13.35;100.00
44765;BME280;30484;52.382;5.260;2023-05-29T01:34:29;102657.59;;;13.33;100.00
44765;BME280;30484;52.382;5.260;2023-05-29T01:36:58;102656.81;;;13.29;100.00
44765;BME280;30484;52.382;5.260;2023-05-29T01:39:27;102655.16;;;12.97;100.00
44765;BME280;30484;52.382;5.260;2023-05-29T01:41:59;102670.72;;;13.13;100.00
44765;BME280;30484;52.382;5.260;2023-05-29T01:44:29;102668.09;;;13.12;100.00
44765;BME280;30484;52.382;5.260;2023-05-29T01:47:00;102666.81;;;13.24;100.00
44765;BME280;30484;52.382;5.260;2023-05-29T01:49:29;102672.50;;;13.43;100.00
44765;BME280;30484;52.382;5.260;2023-05-29T01:52:02;102674.81;;;13.54;100.00
44765;BME280;30484;52.382;5.260;2023-05-29T01:54:30;102679.94;;;13.05;100.00
44765;BME280;30484;52.382;5.260;2023-05-29T01:57:05;102680.97;;;13.29;100.00
44765;BME280;30484;52.382;5.260;2023-05-29T01:59:35;102686.41;;;13.27;100.00
44765;BME280;30484;52.382;5.260;2023-05-29T02:02:07;102687.13;;;13.04;100.00
44765;BME280;30484;52.382;5.260;2023-05-29T02:04:36;102684.03;;;13.17;100.00
44765;BME280;30484;52.382;5.260;2023-05-29T02:07:05;102681.63;;;13.09;100.00
44765;BME280;30484;52.382;5.260;2023-05-29T02:09:38;102683.13;;;13.18;100.00
44765;BME280;30484;52.382;5.260;2023-05-29T02:12:10;102673.19;;;13.21;100.00
44765;BME280;30484;52.382;5.260;2023-05-29T02:14:47;102675.38;;;13.08;100.00
44765;BME280;30484;52.382;5.260;2023-05-29T02:17:16;102685.72;;;12.91;100.00
44765;BME280;30484;52.382;5.260;2023-05-29T02:19:46;102672.00;;;13.02;100.00
44765;BME280;30484;52.382;5.260;2023-05-29T02:22:17;102678.19;;;13.04;100.00
44765;BME280;30484;52.382;5.260;2023-05-29T02:24:46;102678.97;;;13.07;100.00
44765;BME280;30484;52.382;5.260;2023-05-29T02:27:18;102678.00;;;13.10;100.00
44765;BME280;30484;52.382;5.260;2023-05-29T02:29:47;102677.72;;;12.89;100.00
44765;BME280;30484;52.382;5.260;2023-05-29T02:32:18;102671.84;;;13.06;100.00
44765;BME280;30484;52.382;5.260;2023-05-29T02:34:49;102677.53;;;12.97;100.00
44765;BME280;30484;52.382;5.260;2023-05-29T02:37:22;102676.44;;;13.03;100.00
44765;BME280;30484;52.382;5.260;2023-05-29T02:39:53;102682.72;;;13.02;100.00
44765;BME280;30484;52.382;5.260;2023-05-29T02:42:23;102667.81;;;12.93;100.00
44765;BME280;30484;52.382;5.260;2023-05-29T02:44:53;102672.19;;;13.24;100.00
44765;BME280;30484;52.382;5.260;2023-05-29T02:47:22;102677.38;;;13.02;100.00
44765;BME280;30484;52.382;5.260;2023-05-29T02:49:51;102681.38;;;12.87;100.00
44765;BME280;30484;52.382;5.260;2023-05-29T02:52:21;102692.78;;;12.95;100.00
44765;BME280;30484;52.382;5.260;2023-05-29T02:54:51;102689.81;;;13.04;100.00
44765;BME280;30484;52.382;5.260;2023-05-29T02:57:22;102693.22;;;13.09;100.00
44765;BME280;30484;52.382;5.260;2023-05-29T02:59:52;102686.22;;;12.75;100.00
44765;BME280;30484;52.382;5.260;2023-05-29T03:02:22;102675.16;;;12.86;100.00
44765;BME280;30484;52.382;5.260;2023-05-29T03:04:52;102671.66;;;12.84;100.00
44765;BME280;30484;52.382;5.260;2023-05-29T03:07:20;102689.41;;;12.58;100.00
44765;BME280;30484;52.382;5.260;2023-05-29T03:09:50;102690.44;;;12.84;100.00
44765;BME280;30484;52.382;5.260;2023-05-29T03:12:19;102687.03;;;12.77;100.00
44765;BME280;30484;52.382;5.260;2023-05-29T03:14:49;102681.78;;;12.74;100.00
44765;BME280;30484;52.382;5.260;2023-05-29T03:17:18;102685.28;;;12.76;100.00
44765;BME280;30484;52.382;5.260;2023-05-29T03:19:48;102687.03;;;12.77;100.00
44765;BME280;30484;52.382;5.260;2023-05-29T03:22:16;102679.31;;;12.97;100.00
44765;BME280;30484;52.382;5.260;2023-05-29T03:24:45;102684.09;;;12.57;100.00
44765;BME280;30484;52.382;5.260;2023-05-29T03:27:13;102688.88;;;12.77;100.00
44765;BME280;30484;52.382;5.260;2023-05-29T03:29:42;102685.06;;;12.54;100.00
44765;BME280;30484;52.382;5.260;2023-05-29T03:32:12;102685.78;;;12.89;100.00
44765;BME280;30484;52.382;5.260;2023-05-29T03:34:40;102692.84;;;12.62;100.00
44765;BME280;30484;52.382;5.260;2023-05-29T03:37:09;102684.75;;;12.64;100.00
44765;BME280;30484;52.382;5.260;2023-05-29T03:39:38;102688.25;;;12.67;100.00
44765;BME280;30484;52.382;5.260;2023-05-29T03:42:06;102689.47;;;12.24;100.00
44765;BME280;30484;52.382;5.260;2023-05-29T03:44:35;102690.03;;;12.67;100.00
44765;BME280;30484;52.382;5.260;2023-05-29T03:47:04;102681.47;;;12.84;100.00
44765;BME280;30484;52.382;5.260;2023-05-29T03:49:36;102684.63;;;12.68;100.00
44765;BME280;30484;52.382;5.260;2023-05-29T03:52:05;102693.28;;;12.78;100.00
44765;BME280;30484;52.382;5.260;2023-05-29T03:54:34;102682.34;;;12.86;100.00
44765;BME280;30484;52.382;5.260;2023-05-29T03:57:02;102681.25;;;12.62;100.00
44765;BME280;30484;52.382;5.260;2023-05-29T03:59:32;102682.00;;;12.67;100.00
44765;BME280;30484;52.382;5.260;2023-05-29T04:02:00;102698.63;;;12.78;100.00
44765;BME280;30484;52.382;5.260;2023-05-29T04:04:29;102689.06;;;12.69;100.00
44765;BME280;30484;52.382;5.260;2023-05-29T04:06:59;102700.16;;;12.88;100.00
44765;BME280;30484;52.382;5.260;2023-05-29T04:09:28;102691.91;;;12.65;100.00
44765;BME280;30484;52.382;5.260;2023-05-29T04:11:56;102699.19;;;12.89;100.00
44765;BME280;30484;52.382;5.260;2023-05-29T04:14:24;102697.50;;;12.57;100.00
44765;BME280;30484;52.382;5.260;2023-05-29T04:16:53;102707.53;;;12.80;100.00
44765;BME280;30484;52.382;5.260;2023-05-29T04:19:22;102703.28;;;13.03;100.00
44765;BME280;30484;52.382;5.260;2023-05-29T04:21:50;102703.66;;;12.90;100.00
44765;BME280;30484;52.382;5.260;2023-05-29T04:24:21;102711.03;;;12.82;100.00
44765;BME280;30484;52.382;5.260;2023-05-29T04:26:51;102706.75;;;12.76;100.00
44765;BME280;30484;52.382;5.260;2023-05-29T04:29:20;102720.50;;;12.95;100.00
44765;BME280;30484;52.382;5.260;2023-05-29T04:31:50;102719.19;;;13.09;100.00
44765;BME280;30484;52.382;5.260;2023-05-29T04:34:19;102726.72;;;13.26;100.00
44765;BME280;30484;52.382;5.260;2023-05-29T04:36:47;102716.75;;;13.01;100.00
44765;BME280;30484;52.382;5.260;2023-05-29T04:39:17;102734.69;;;12.99;100.00
44765;BME280;30484;52.382;5.260;2023-05-29T04:41:54;102725.50;;;12.76;100.00
44765;BME280;30484;52.382;5.260;2023-05-29T04:44:30;102728.03;;;12.83;100.00
44765;BME280;30484;52.382;5.260;2023-05-29T04:47:00;102726.91;;;13.20;100.00
44765;BME280;30484;52.382;5.260;2023-05-29T04:49:32;102743.34;;;13.39;100.00
44765;BME280;30484;52.382;5.260;2023-05-29T04:52:06;102739.97;;;13.30;100.00
44765;BME280;30484;52.382;5.260;2023-05-29T04:54:38;102737.19;;;13.35;100.00
44765;BME280;30484;52.382;5.260;2023-05-29T04:57:08;102746.50;;;13.52;100.00
44765;BME280;30484;52.382;5.260;2023-05-29T04:59:39;102738.66;;;13.45;100.00
44765;BME280;30484;52.382;5.260;2023-05-29T05:02:09;102741.97;;;13.80;100.00
44765;BME280;30484;52.382;5.260;2023-05-29T05:04:40;102736.22;;;13.93;100.00
44765;BME280;30484;52.382;5.260;2023-05-29T05:07:11;102731.19;;;13.55;100.00
44765;BME280;30484;52.382;5.260;2023-05-29T05:09:41;102736.66;;;13.79;100.00
44765;BME280;30484;52.382;5.260;2023-05-29T05:12:11;102741.63;;;13.91;100.00
44765;BME280;30484;52.382;5.260;2023-05-29T05:14:41;102748.91;;;13.88;100.00
44765;BME280;30484;52.382;5.260;2023-05-29T05:17:10;102749.25;;;14.04;100.00
44765;BME280;30484;52.382;5.260;2023-05-29T05:19:41;102749.16;;;14.32;100.00
44765;BME280;30484;52.382;5.260;2023-05-29T05:22:11;102754.47;;;14.35;100.00
44765;BME280;30484;52.382;5.260;2023-05-29T05:24:43;102743.44;;;14.68;100.00
44765;BME280;30484;52.382;5.260;2023-05-29T05:27:13;102744.97;;;14.75;100.00
44765;BME280;30484;52.382;5.260;2023-05-29T05:29:42;102745.25;;;14.91;100.00
44765;BME280;30484;52.382;5.260;2023-05-29T05:32:19;102746.25;;;14.89;100.00
44765;BME280;30484;52.382;5.260;2023-05-29T05:34:49;102748.81;;;15.15;100.00
44765;BME280;30484;52.382;5.260;2023-05-29T05:37:17;102751.19;;;15.23;100.00
44765;BME280;30484;52.382;5.260;2023-05-29T05:39:46;102755.78;;;15.21;100.00
44765;BME280;30484;52.382;5.260;2023-05-29T05:42:19;102754.22;;;15.38;100.00
44765;BME280;30484;52.382;5.260;2023-05-29T05:45:24;102751.63;;;15.12;100.00
44765;BME280;30484;52.382;5.260;2023-05-29T05:50:35;102746.00;;;15.63;100.00
44765;BME280;30484;52.382;5.260;2023-05-29T05:53:05;102750.59;;;15.83;100.00
44765;BME280;30484;52.382;5.260;2023-05-29T05:55:35;102755.28;;;16.00;100.00
44765;BME280;30484;52.382;5.260;2023-05-29T05:58:07;102750.59;;;16.05;100.00
44765;BME280;30484;52.382;5.260;2023-05-29T06:00:36;102747.28;;;15.54;100.00
44765;BME280;30484;52.382;5.260;2023-05-29T06:03:06;102745.44;;;15.77;100.00
44765;BME280;30484;52.382;5.260;2023-05-29T06:05:37;102751.34;;;16.29;100.00
44765;BME280;30484;52.382;5.260;2023-05-29T06:08:08;102756.16;;;16.42;100.00
44765;BME280;30484;52.382;5.260;2023-05-29T06:10:37;102757.19;;;16.18;100.00
44765;BME280;30484;52.382;5.260;2023-05-29T06:13:22;102752.38;;;16.66;100.00
44765;BME280;30484;52.382;5.260;2023-05-29T06:15:51;102750.22;;;16.54;100.00
44765;BME280;30484;52.382;5.260;2023-05-29T06:18:34;102769.66;;;16.42;100.00
44765;BME280;30484;52.382;5.260;2023-05-29T06:21:13;102751.06;;;16.15;100.00
44765;BME280;30484;52.382;5.260;2023-05-29T06:23:57;102759.69;;;16.44;100.00
44765;BME280;30484;52.382;5.260;2023-05-29T06:26:27;102764.41;;;16.59;100.00
44765;BME280;30484;52.382;5.260;2023-05-29T06:33:02;102756.56;;;17.13;100.00
44765;BME280;30484;52.382;5.260;2023-05-29T06:35:59;102761.06;;;16.94;100.00
44765;BME280;30484;52.382;5.260;2023-05-29T06:38:46;102754.41;;;17.01;100.00
44765;BME280;30484;52.382;5.260;2023-05-29T06:41:29;102768.34;;;17.30;100.00
44765;BME280;30484;52.382;5.260;2023-05-29T06:44:18;102760.97;;;17.52;100.00
44765;BME280;30484;52.382;5.260;2023-05-29T06:47:17;102763.84;;;17.30;100.00
44765;BME280;30484;52.382;5.260;2023-05-29T07:05:16;102784.84;;;17.98;100.00
44765;BME280;30484;52.382;5.260;2023-05-29T07:08:03;102777.78;;;17.76;100.00
44765;BME280;30484;52.382;5.260;2023-05-29T07:11:01;102789.06;;;17.67;100.00
44765;BME280;30484;52.382;5.260;2023-05-29T07:14:01;102789.81;;;17.52;100.00
44765;BME280;30484;52.382;5.260;2023-05-29T07:16:58;102792.72;;;17.66;100.00
44765;BME280;30484;52.382;5.260;2023-05-29T07:19:54;102791.34;;;17.57;100.00
44765;BME280;30484;52.382;5.260;2023-05-29T07:22:55;102793.91;;;17.22;100.00
44765;BME280;30484;52.382;5.260;2023-05-29T07:25:27;102798.44;;;17.22;100.00
44765;BME280;30484;52.382;5.260;2023-05-29T07:28:10;102789.19;;;16.67;100.00
44765;BME280;30484;52.382;5.260;2023-05-29T07:31:07;102800.84;;;17.28;100.00
44765;BME280;30484;52.382;5.260;2023-05-29T07:33:58;102811.56;;;17.68;100.00
44765;BME280;30484;52.382;5.260;2023-05-29T07:37:17;102801.22;;;17.20;100.00
44765;BME280;30484;52.382;5.260;2023-05-29T07:43:58;102789.19;;;17.83;100.00
44765;BME280;30484;52.382;5.260;2023-05-29T07:46:45;102798.31;;;18.17;100.00
44765;BME280;30484;52.382;5.260;2023-05-29T07:49:17;102794.94;;;17.75;100.00
44765;BME280;30484;52.382;5.260;2023-05-29T07:52:01;102789.47;;;18.31;100.00
44765;BME280;30484;52.382;5.260;2023-05-29T07:54:58;102791.56;;;18.26;100.00
44765;BME280;30484;52.382;5.260;2023-05-29T07:57:29;102784.63;;;18.38;100.00
44765;BME280;30484;52.382;5.260;2023-05-29T08:00:03;102797.44;;;18.85;100.00
44765;BME280;30484;52.382;5.260;2023-05-29T08:03:04;102793.97;;;17.96;100.00
44765;BME280;30484;52.382;5.260;2023-05-29T08:05:59;102812.88;;;18.50;100.00
44765;BME280;30484;52.382;5.260;2023-05-29T08:08:43;102832.72;;;18.50;100.00
44765;BME280;30484;52.382;5.260;2023-05-29T08:12:00;102812.69;;;17.81;100.00
44765;BME280;30484;52.382;5.260;2023-05-29T08:14:57;102804.75;;;18.50;100.00
44765;BME280;30484;52.382;5.260;2023-05-29T08:25:18;102812.50;;;18.40;100.00
44765;BME280;30484;52.382;5.260;2023-05-29T08:28:02;102814.47;;;18.36;100.00
44765;BME280;30484;52.382;5.260;2023-05-29T08:30:46;102823.25;;;18.41;100.00
44765;BME280;30484;52.382;5.260;2023-05-29T08:33:44;102823.94;;;18.10;100.00
44765;BME280;30484;52.382;5.260;2023-05-29T08:36:36;102804.38;;;17.86;100.00
44765;BME280;30484;52.382;5.260;2023-05-29T08:39:10;102815.69;;;18.82;100.00
44765;BME280;30484;52.382;5.260;2023-05-29T08:42:01;102814.53;;;18.87;100.00
44765;BME280;30484;52.382;5.260;2023-05-29T08:44:32;102818.16;;;18.86;100.00
44765;BME280;30484;52.382;5.260;2023-05-29T08:47:17;102810.03;;;18.53;100.00
44765;BME280;30484;52.382;5.260;2023-05-29T08:50:02;102826.50;;;18.66;100.00
44765;BME280;30484;52.382;5.260;2023-05-29T08:52:41;102831.03;;;19.48;100.00
44765;BME280;30484;52.382;5.260;2023-05-29T08:55:32;102819.31;;;19.16;100.00
44765;BME280;30484;52.382;5.260;2023-05-29T08:58:06;102825.41;;;19.03;100.00
44765;BME280;30484;52.382;5.260;2023-05-29T09:00:46;102806.81;;;18.62;100.00
44765;BME280;30484;52.382;5.260;2023-05-29T09:03:16;102810.56;;;19.42;100.00
44765;BME280;30484;52.382;5.260;2023-05-29T09:05:58;102806.47;;;19.67;100.00
44765;BME280;30484;52.382;5.260;2023-05-29T09:08:34;102821.88;;;19.35;100.00
44765;BME280;30484;52.382;5.260;2023-05-29T09:11:18;102810.03;;;20.15;100.00
44765;BME280;30484;52.382;5.260;2023-05-29T09:14:00;102815.13;;;20.06;100.00
44765;BME280;30484;52.382;5.260;2023-05-29T09:16:31;102824.81;;;19.78;100.00
44765;BME280;30484;52.382;5.260;2023-05-29T09:19:06;102839.41;;;19.11;100.00
44765;BME280;30484;52.382;5.260;2023-05-29T09:21:40;102823.72;;;19.66;100.00
44765;BME280;30484;52.382;5.260;2023-05-29T09:24:16;102828.69;;;20.06;100.00
44765;BME280;30484;52.382;5.260;2023-05-29T09:27:01;102813.66;;;19.36;100.00
44765;BME280;30484;52.382;5.260;2023-05-29T09:29:52;102826.06;;;19.56;100.00
44765;BME280;30484;52.382;5.260;2023-05-29T09:32:44;102823.88;;;19.63;100.00
44765;BME280;30484;52.382;5.260;2023-05-29T09:35:26;102818.50;;;19.13;100.00
44765;BME280;30484;52.382;5.260;2023-05-29T09:37:56;102821.00;;;20.28;100.00
44765;BME280;30484;52.382;5.260;2023-05-29T09:40:40;102821.34;;;20.38;100.00
44765;BME280;30484;52.382;5.260;2023-05-29T09:43:15;102812.38;;;20.36;100.00
44765;BME280;30484;52.382;5.260;2023-05-29T09:45:48;102820.66;;;19.56;100.00
44765;BME280;30484;52.382;5.260;2023-05-29T09:48:22;102808.94;;;19.40;100.00
44765;BME280;30484;52.382;5.260;2023-05-29T09:51:06;102817.50;;;20.57;100.00
44765;BME280;30484;52.382;5.260;2023-05-29T09:53:51;102823.38;;;20.49;100.00
44765;BME280;30484;52.382;5.260;2023-05-29T09:56:47;102813.06;;;21.42;100.00
44765;BME280;30484;52.382;5.260;2023-05-29T09:59:33;102816.97;;;21.09;100.00
44765;BME280;30484;52.382;5.260;2023-05-29T10:02:22;102810.88;;;21.47;100.00
44765;BME280;30484;52.382;5.260;2023-05-29T10:05:18;102811.09;;;21.44;100.00
44765;BME280;30484;52.382;5.260;2023-05-29T10:08:04;102812.84;;;21.87;100.00
44765;BME280;30484;52.382;5.260;2023-05-29T10:11:02;102818.59;;;21.82;100.00
44765;BME280;30484;52.382;5.260;2023-05-29T10:14:00;102815.63;;;22.40;100.00
44765;BME280;30484;52.382;5.260;2023-05-29T10:16:58;102809.81;;;21.92;100.00
44765;BME280;30484;52.382;5.260;2023-05-29T10:20:05;102808.97;;;21.49;100.00
44765;BME280;30484;52.382;5.260;2023-05-29T10:22:42;102805.53;;;21.60;100.00
44765;BME280;30484;52.382;5.260;2023-05-29T10:25:28;102808.69;;;22.21;100.00
44765;BME280;30484;52.382;5.260;2023-05-29T10:28:00;102801.38;;;22.75;100.00
44765;BME280;30484;52.382;5.260;2023-05-29T10:30:54;102794.72;;;22.40;100.00
44765;BME280;30484;52.382;5.260;2023-05-29T10:33:54;102792.75;;;22.94;100.00
44765;BME280;30484;52.382;5.260;2023-05-29T10:37:14;102813.25;;;22.48;100.00
44765;BME280;30484;52.382;5.260;2023-05-29T10:40:12;102789.59;;;22.49;100.00
44765;BME280;30484;52.382;5.260;2023-05-29T10:43:00;102788.34;;;22.27;100.00
44765;BME280;30484;52.382;5.260;2023-05-29T10:45:56;102790.47;;;22.62;100.00
44765;BME280;30484;52.382;5.260;2023-05-29T10:48:56;102787.06;;;22.84;100.00
44765;BME280;30484;52.382;5.260;2023-05-29T10:51:53;102800.56;;;22.34;100.00
44765;BME280;30484;52.382;5.260;2023-05-29T10:55:05;102800.72;;;22.58;100.00
44765;BME280;30484;52.382;5.260;2023-05-29T10:58:05;102798.19;;;22.55;100.00
44765;BME280;30484;52.382;5.260;2023-05-29T11:00:55;102804.09;;;22.75;100.00
44765;BME280;30484;52.382;5.260;2023-05-29T11:03:53;102798.75;;;22.61;100.00
44765;BME280;30484;52.382;5.260;2023-05-29T11:07:06;102798.19;;;22.55;100.00
44765;BME280;30484;52.382;5.260;2023-05-29T11:10:15;102795.69;;;22.78;100.00
44765;BME280;30484;52.382;5.260;2023-05-29T11:12:59;102805.06;;;23.00;100.00
44765;BME280;30484;52.382;5.260;2023-05-29T11:16:04;102797.66;;;23.02;100.00
44765;BME280;30484;52.382;5.260;2023-05-29T11:18:45;102790.69;;;22.59;100.00
44765;BME280;30484;52.382;5.260;2023-05-29T11:21:38;102807.06;;;22.59;100.00
44765;BME280;30484;52.382;5.260;2023-05-29T11:24:36;102802.69;;;23.45;100.00
44765;BME280;30484;52.382;5.260;2023-05-29T11:27:30;102804.72;;;22.91;100.00
44765;BME280;30484;52.382;5.260;2023-05-29T11:30:05;102794.34;;;23.09;100.00
44765;BME280;30484;52.382;5.260;2023-05-29T11:32:39;102813.38;;;23.48;100.00
44765;BME280;30484;52.382;5.260;2023-05-29T11:35:30;102810.31;;;23.53;100.00
44765;BME280;30484;52.382;5.260;2023-05-29T11:38:30;102812.31;;;23.38;100.00
44765;BME280;30484;52.382;5.260;2023-05-29T11:41:15;102803.34;;;23.49;100.00
44765;BME280;30484;52.382;5.260;2023-05-29T11:44:34;102807.81;;;23.50;100.00
44765;BME280;30484;52.382;5.260;2023-05-29T11:47:16;102821.38;;;23.38;100.00
44765;BME280;30484;52.382;5.260;2023-05-29T11:49:46;102816.81;;;23.39;100.00
44765;BME280;30484;52.382;5.260;2023-05-29T11:52:45;102806.06;;;23.12;100.00
44765;BME280;30484;52.382;5.260;2023-05-29T11:55:29;102800.00;;;23.32;100.00
44765;BME280;30484;52.382;5.260;2023-05-29T11:58:15;102804.72;;;22.91;100.00
44765;BME280;30484;52.382;5.260;2023-05-29T12:01:20;102793.91;;;23.03;100.00
44765;BME280;30484;52.382;5.260;2023-05-29T12:04:17;102804.09;;;24.23;100.00
44765;BME280;30484;52.382;5.260;2023-05-29T12:06:48;102805.25;;;24.32;100.00
44765;BME280;30484;52.382;5.260;2023-05-29T12:09:28;102807.72;;;23.38;100.00
44765;BME280;30484;52.382;5.260;2023-05-29T12:12:02;102800.56;;;23.37;100.00
44765;BME280;30484;52.382;5.260;2023-05-29T12:15:00;102801.25;;;22.77;100.00
44765;BME280;30484;52.382;5.260;2023-05-29T12:17:58;102809.66;;;22.61;100.00
44765;BME280;30484;52.382;5.260;2023-05-29T12:20:59;102797.19;;;23.82;100.00
44765;BME280;30484;52.382;5.260;2023-05-29T12:23:28;102792.09;;;23.53;100.00
44765;BME280;30484;52.382;5.260;2023-05-29T12:25:58;102798.25;;;23.68;100.00
44765;BME280;30484;52.382;5.260;2023-05-29T12:28:27;102791.75;;;23.08;100.00
44765;BME280;30484;52.382;5.260;2023-05-29T12:30:59;102795.13;;;23.86;100.00
44765;BME280;30484;52.382;5.260;2023-05-29T12:33:31;102804.69;;;23.43;100.00
44765;BME280;30484;52.382;5.260;2023-05-29T12:36:06;102796.31;;;23.94;100.00
44765;BME280;30484;52.382;5.260;2023-05-29T12:38:46;102783.13;;;23.01;100.00
44765;BME280;30484;52.382;5.260;2023-05-29T12:41:27;102793.94;;;23.16;100.00
44765;BME280;30484;52.382;5.260;2023-05-29T12:43:57;102799.25;;;23.67;100.00
44765;BME280;30484;52.382;5.260;2023-05-29T12:46:26;102796.31;;;24.30;100.00
44765;BME280;30484;52.382;5.260;2023-05-29T12:48:57;102794.03;;;24.71;100.00
44765;BME280;30484;52.382;5.260;2023-05-29T12:51:27;102795.59;;;24.04;100.00
44765;BME280;30484;52.382;5.260;2023-05-29T12:53:56;102775.97;;;23.13;100.00
44765;BME280;30484;52.382;5.260;2023-05-29T12:56:25;102786.84;;;23.87;100.00
44765;BME280;30484;52.382;5.260;2023-05-29T12:58:54;102783.50;;;24.30;100.00
44765;BME280;30484;52.382;5.260;2023-05-29T13:01:23;102778.72;;;23.99;100.00
44765;BME280;30484;52.382;5.260;2023-05-29T13:03:51;102782.72;;;24.98;100.00
44765;BME280;30484;52.382;5.260;2023-05-29T13:06:22;102787.97;;;24.67;100.00
44765;BME280;30484;52.382;5.260;2023-05-29T13:08:52;102785.69;;;24.61;100.00
44765;BME280;30484;52.382;5.260;2023-05-29T13:11:21;102781.38;;;24.92;100.00
44765;BME280;30484;52.382;5.260;2023-05-29T13:13:50;102788.44;;;25.29;100.00
44765;BME280;30484;52.382;5.260;2023-05-29T13:16:28;102795.25;;;25.57;100.00
44765;BME280;30484;52.382;5.260;2023-05-29T13:18:58;102784.09;;;25.38;100.00
44765;BME280;30484;52.382;5.260;2023-05-29T13:21:56;102785.84;;;25.05;100.00
44765;BME280;30484;52.382;5.260;2023-05-29T13:24:45;102782.22;;;25.82;100.00
44765;BME280;30484;52.382;5.260;2023-05-29T13:27:17;102780.81;;;24.42;100.00
44765;BME280;30484;52.382;5.260;2023-05-29T13:29:51;102797.19;;;26.31;100.00
44765;BME280;30484;52.382;5.260;2023-05-29T13:32:25;102788.19;;;25.21;100.00
44765;BME280;30484;52.382;5.260;2023-05-29T13:34:54;102795.72;;;26.27;100.00
44765;BME280;30484;52.382;5.260;2023-05-29T13:37:27;102787.09;;;25.78;100.00
44765;BME280;30484;52.382;5.260;2023-05-29T13:39:56;102785.38;;;26.10;100.00
44765;BME280;30484;52.382;5.260;2023-05-29T13:42:27;102786.41;;;26.82;100.00
44765;BME280;30484;52.382;5.260;2023-05-29T13:44:55;102781.22;;;26.15;94.94
44765;BME280;30484;52.382;5.260;2023-05-29T13:47:24;102792.78;;;26.19;92.07
44765;BME280;30484;52.382;5.260;2023-05-29T13:49:56;102775.13;;;25.24;96.95
44765;BME280;30484;52.382;5.260;2023-05-29T13:52:29;102780.28;;;26.26;91.48
44765;BME280;30484;52.382;5.260;2023-05-29T13:54:58;102789.25;;;26.49;91.99
44765;BME280;30484;52.382;5.260;2023-05-29T13:57:33;102779.69;;;27.36;87.16
44765;BME280;30484;52.382;5.260;2023-05-29T14:00:02;102781.72;;;27.03;86.36
44765;BME280;30484;52.382;5.260;2023-05-29T14:02:37;102788.69;;;27.87;86.66
44765;BME280;30484;52.382;5.260;2023-05-29T14:05:07;102780.47;;;27.68;84.44
44765;BME280;30484;52.382;5.260;2023-05-29T14:07:39;102784.06;;;27.59;85.17
44765;BME280;30484;52.382;5.260;2023-05-29T14:10:09;102785.19;;;27.36;87.75
44765;BME280;30484;52.382;5.260;2023-05-29T14:12:39;102779.31;;;28.19;87.94